PASN/SNP METAR and TAF weather

Enter ICAO airport designator
Station Type Date Time Source
PASN METAR 2024/02/26 17:26 UTC NOAA

PASN 261726Z AUTO 01029G38KT 1/2SM -SN FZFG FEW007 OVC012 M01/M02 A2941 RMK AO2 PK WND 36038/1726 SNB1658 PRESRR P0000 T10111022 TSNO $


Station Type Date Time Source
PASN Decoded METAR 2024/02/26 17:26 UTC NOAA

ST PAUL ISLAND AIRPORT, AK, United States (PASN) 57-10N 170-13W 9M
Feb 26, 2024 - 12:26 PM EST / 2024.02.26 1726 UTC
Wind: from the N (010 degrees) at 33 MPH (29 KT) gusting to 44 MPH (38 KT):0
Visibility: 1/2 mile(s):0
Sky conditions: overcast
Weather: light snow; freezing fog
Precipitation last hour: A trace
Temperature: 30.0 F (-1.1 C)
Windchill: 14 F (-10 C):1
Dew Point: 28.0 F (-2.2 C)
Relative Humidity: 92%
Pressure (altimeter): 29.41 in. Hg (995 hPa)
Pressure tendency: rising rapidly
ob: PASN 261726Z AUTO 01029G38KT 1/2SM -SN FZFG FEW007 OVC012 M01/M02 A2941 RMK AO2 PK WND 36038/1726 SNB1658 PRESRR P0000 T10111022 TSNO
cycle: 17

Station Type Date Time Source
PASN TAF 2024/02/26 12:30 UTC NOAA